Time;durP1;ratioP1;P1;durP2;ratioP2;P2;SDS_P1;SDS_P2;PMS_P1;PMS_P2;Temp;Humidity;BMP_temperature;BMP_pressure;BME280_temperature;BME280_humidity;BME280_pressure;Samples;Min_cycle;Max_cycle;Signal;HPM_P1;HPM_P2
2022/07/19 00:00:48;;;;;;;14.60;8.90;;;;;;;16.98;100.00;101454.16;7399657;19;20396;-52
2022/07/19 00:03:18;;;;;;;17.80;9.27;;;;;;;16.97;100.00;101447.19;7387395;19;20415;-56
2022/07/19 00:05:50;;;;;;;14.40;8.00;;;;;;;17.00;100.00;101454.22;7394342;19;20442;-57
2022/07/19 00:08:20;;;;;;;17.63;9.17;;;;;;;16.98;100.00;101468.94;7386553;19;20438;-55
2022/07/19 00:10:49;;;;;;;16.57;8.13;;;;;;;16.99;100.00;101481.13;7393639;19;20395;-57
2022/07/19 00:13:25;;;;;;;15.23;8.57;;;;;;;16.99;100.00;101445.50;7394840;19;20429;-59
2022/07/19 00:15:54;;;;;;;13.47;7.93;;;;;;;16.92;100.00;101416.66;7392201;19;20976;-58
2022/07/19 00:18:24;;;;;;;14.20;7.60;;;;;;;16.79;100.00;101377.25;7394941;19;20423;-57
2022/07/19 00:20:56;;;;;;;16.13;8.37;;;;;;;16.66;100.00;101344.75;7394864;19;20387;-55
2022/07/19 00:23:26;;;;;;;19.70;9.27;;;;;;;16.64;100.00;101323.00;7394593;19;20756;-57
2022/07/19 00:25:55;;;;;;;11.67;7.50;;;;;;;16.57;100.00;101308.06;7386087;19;20415;-61
2022/07/19 00:28:25;;;;;;;16.03;7.70;;;;;;;16.53;100.00;101291.50;7394961;19;20391;-57
2022/07/19 00:30:54;;;;;;;14.90;7.83;;;;;;;16.56;100.00;101291.56;7393020;19;20413;-58
2022/07/19 00:33:24;;;;;;;13.97;7.50;;;;;;;16.50;100.00;101288.78;7394324;19;20408;-52
2022/07/19 00:35:57;;;;;;;13.97;7.93;;;;;;;16.46;100.00;101284.38;7392872;19;20944;-55
2022/07/19 00:38:27;;;;;;;12.30;8.13;;;;;;;16.43;100.00;101268.66;7393790;19;20756;-55
2022/07/19 00:40:56;;;;;;;12.50;8.10;;;;;;;16.36;100.00;101267.59;7385988;19;20383;-57
2022/07/19 00:43:26;;;;;;;12.10;7.47;;;;;;;16.26;100.00;101250.00;7393763;19;20386;-56
2022/07/19 00:45:55;;;;;;;11.80;8.30;;;;;;;16.30;100.00;101229.28;7385362;19;20415;-62
2022/07/19 00:48:25;;;;;;;15.00;8.27;;;;;;;16.23;100.00;101218.66;7394269;19;20405;-56
2022/07/19 00:50:57;;;;;;;12.07;7.60;;;;;;;16.13;100.00;101218.44;7392746;19;20905;-57
2022/07/19 00:53:27;;;;;;;14.03;8.47;;;;;;;16.02;100.00;101191.25;7393587;19;20410;-55
2022/07/19 00:55:57;;;;;;;12.67;8.40;;;;;;;16.09;100.00;101179.28;7385865;19;20420;-58
2022/07/19 00:58:27;;;;;;;14.67;8.73;;;;;;;16.02;100.00;101173.03;7396491;19;20408;-54
2022/07/19 01:00:57;;;;;;;13.50;8.23;;;;;;;15.90;100.00;101147.53;7383360;19;20386;-58
2022/07/19 01:03:27;;;;;;;16.57;7.77;;;;;;;15.85;100.00;101128.31;7393670;19;20408;-57
2022/07/19 01:05:59;;;;;;;16.97;8.47;;;;;;;15.85;100.00;101117.91;7385062;19;20413;-56
2022/07/19 01:08:29;;;;;;;18.03;7.80;;;;;;;15.88;100.00;101102.38;7393139;19;20396;-58
2022/07/19 01:10:59;;;;;;;12.40;7.37;;;;;;;15.87;100.00;101098.91;7385467;19;20381;-55
2022/07/19 01:13:28;;;;;;;13.47;8.10;;;;;;;15.82;100.00;101097.00;7392528;19;20745;-52
2022/07/19 01:15:58;;;;;;;14.83;8.60;;;;;;;15.76;100.00;101087.34;7387558;19;20419;-59
2022/07/19 01:18:27;;;;;;;15.07;8.37;;;;;;;15.73;100.00;101077.75;7393016;19;20388;-58
2022/07/19 01:21:00;;;;;;;12.50;7.90;;;;;;;15.68;100.00;101068.94;7383787;19;20394;-54
2022/07/19 01:23:32;;;;;;;12.63;7.70;;;;;;;15.70;100.00;101055.97;7393053;19;20402;-52
2022/07/19 01:26:02;;;;;;;15.83;8.87;;;;;;;15.67;100.00;101051.56;7373194;19;20781;-58
2022/07/19 01:28:31;;;;;;;12.93;7.93;;;;;;;15.61;100.00;101047.09;7392288;19;20390;-57
2022/07/19 01:31:01;;;;;;;13.37;8.50;;;;;;;15.57;100.00;101036.56;7384122;19;20386;-59
2022/07/19 01:33:31;;;;;;;14.17;8.20;;;;;;;15.56;100.00;101027.00;7392439;19;20388;-55
2022/07/19 01:36:00;;;;;;;11.77;7.70;;;;;;;15.53;100.00;101018.28;7382339;19;20406;-58
2022/07/19 01:38:32;;;;;;;15.07;9.03;;;;;;;15.56;100.00;101014.00;7392579;19;20741;-58
2022/07/19 01:41:02;;;;;;;13.60;7.97;;;;;;;15.51;100.00;101011.28;7385309;19;21025;-56
2022/07/19 01:43:32;;;;;;;15.17;8.13;;;;;;;15.44;100.00;100986.84;7392138;19;20929;-58
2022/07/19 01:46:01;;;;;;;15.20;8.97;;;;;;;15.49;100.00;100971.38;7384295;19;20768;-56
2022/07/19 01:48:31;;;;;;;14.50;8.90;;;;;;;15.62;100.00;100964.75;7390988;19;20735;-56
2022/07/19 01:51:00;;;;;;;15.10;8.37;;;;;;;15.57;100.00;100966.34;7383948;19;20384;-57
2022/07/19 01:53:33;;;;;;;16.10;8.60;;;;;;;15.53;100.00;100976.69;7391788;19;20401;-58
2022/07/19 01:56:02;;;;;;;18.83;9.87;;;;;;;15.49;100.00;100967.03;7384964;19;20438;-58
2022/07/19 01:58:32;;;;;;;14.70;9.00;;;;;;;15.48;100.00;100969.63;7395712;19;20403;-55
2022/07/19 02:01:01;;;;;;;13.20;8.73;;;;;;;15.41;100.00;100965.97;7384032;19;20459;-57
2022/07/19 02:03:31;;;;;;;15.10;9.00;;;;;;;15.34;100.00;100954.53;7391960;19;20407;-58
2022/07/19 02:06:01;;;;;;;19.83;10.00;;;;;;;15.25;100.00;100944.81;7382986;19;20482;-57
2022/07/19 02:08:33;;;;;;;18.53;9.60;;;;;;;15.23;100.00;100930.88;7391658;19;20394;-59
2022/07/19 02:11:34;;;;;;;18.80;9.90;;;;;;;15.28;100.00;100923.19;7382999;19;20922;-59
2022/07/19 02:13:52;;;;;;;17.17;9.03;;;;;;;15.25;100.00;100924.03;7391903;19;20482;-57
2022/07/19 02:16:22;;;;;;;19.20;9.87;;;;;;;15.30;100.00;100915.44;7383089;19;20787;-57
2022/07/19 02:18:52;;;;;;;18.27;10.53;;;;;;;15.23;100.00;100919.63;7391362;19;20917;-54
2022/07/19 02:21:21;;;;;;;16.03;9.90;;;;;;;15.32;100.00;100908.56;7385608;19;20417;-57
2022/07/19 02:23:53;;;;;;;58.27;32.43;;;;;;;15.70;100.00;100908.63;7391848;19;20390;-58
2022/07/19 02:26:24;;;;;;;23.37;13.07;;;;;;;15.83;100.00;100933.16;7384159;19;20487;-56
2022/07/19 02:28:53;;;;;;;69.33;35.13;;;;;;;15.88;100.00;100961.88;7391493;19;20386;-56
2022/07/19 02:31:23;;;;;;;55.30;31.13;;;;;;;15.74;100.00;100975.44;7379534;19;20418;-59
2022/07/19 02:33:53;;;;;;;24.93;13.60;;;;;;;15.56;100.00;100988.91;7390970;19;20740;-58
2022/07/19 02:36:22;;;;;;;25.63;14.87;;;;;;;15.43;100.00;100985.09;7386235;19;20402;-57
2022/07/19 02:38:55;;;;;;;33.43;16.30;;;;;;;15.37;100.00;100971.94;7392760;19;20397;-59
2022/07/19 02:41:25;;;;;;;17.60;10.97;;;;;;;15.38;100.00;100955.50;7391541;19;20414;-56
2022/07/19 02:43:55;;;;;;;18.07;10.67;;;;;;;15.32;100.00;100950.13;7397862;19;20399;-59
2022/07/19 02:46:24;;;;;;;17.13;10.60;;;;;;;15.28;100.00;100951.78;7387473;19;20406;-58
2022/07/19 02:48:54;;;;;;;17.00;9.63;;;;;;;15.21;100.00;100945.56;7398158;19;20414;-55
2022/07/19 02:51:23;;;;;;;18.07;10.13;;;;;;;15.20;100.00;100940.31;7389422;19;20501;-53
2022/07/19 02:53:55;;;;;;;17.13;9.97;;;;;;;15.19;100.00;100928.19;7401834;19;20395;-59
2022/07/19 02:56:25;;;;;;;20.20;9.70;;;;;;;15.15;100.00;100922.03;7388582;19;20821;-54
2022/07/19 02:58:54;;;;;;;19.60;10.47;;;;;;;15.16;100.00;100918.56;7398000;19;20389;-56
2022/07/19 03:01:24;;;;;;;18.10;10.80;;;;;;;15.12;100.00;100916.72;7388206;19;20402;-55
2022/07/19 03:03:53;;;;;;;20.97;11.90;;;;;;;15.10;100.00;100918.41;7398096;19;20388;-57
2022/07/19 03:06:23;;;;;;;21.83;11.37;;;;;;;15.06;100.00;100921.78;7391461;19;20497;-57
2022/07/19 03:08:55;;;;;;;19.63;11.90;;;;;;;15.02;100.00;100910.41;7397910;19;20741;-57
2022/07/19 03:11:25;;;;;;;20.17;12.30;;;;;;;15.07;100.00;100907.97;7388276;19;20951;-57
2022/07/19 03:13:54;;;;;;;20.03;11.63;;;;;;;14.87;100.00;100908.28;7396570;19;20475;-58
2022/07/19 03:16:24;;;;;;;23.70;12.53;;;;;;;14.72;100.00;100895.78;7386061;19;20432;-58
2022/07/19 03:18:53;;;;;;;22.90;11.87;;;;;;;14.67;100.00;100881.78;7397367;19;20406;-56
2022/07/19 03:21:23;;;;;;;19.37;12.10;;;;;;;14.66;100.00;100875.69;7388111;19;20419;-56
2022/07/19 03:23:55;;;;;;;22.53;12.50;;;;;;;14.67;100.00;100871.41;7397179;19;20389;-57
2022/07/19 03:26:25;;;;;;;23.53;12.07;;;;;;;14.72;100.00;100855.09;7387073;19;20438;-56
2022/07/19 03:28:55;;;;;;;26.73;13.70;;;;;;;14.75;100.00;100859.53;7397205;19;20385;-55
2022/07/19 03:31:25;;;;;;;21.03;12.20;;;;;;;14.75;100.00;100858.63;7391095;19;20421;-56
2022/07/19 03:33:55;;;;;;;21.00;11.90;;;;;;;14.72;100.00;100849.03;7396453;19;20404;-56
2022/07/19 03:36:25;;;;;;;21.37;12.00;;;;;;;14.75;100.00;100848.25;7386535;19;20424;-58
2022/07/19 03:38:57;;;;;;;26.17;13.37;;;;;;;14.74;100.00;100849.06;7396626;19;20394;-58
2022/07/19 03:41:26;;;;;;;20.80;12.00;;;;;;;14.76;100.00;100845.69;7387885;19;20825;-58
2022/07/19 03:43:56;;;;;;;22.67;12.00;;;;;;;14.72;100.00;100844.69;7395785;19;21042;-58
2022/07/19 03:46:26;;;;;;;26.30;13.50;;;;;;;14.77;100.00;100851.78;7385412;19;20416;-57
2022/07/19 03:48:55;;;;;;;24.57;13.10;;;;;;;14.77;100.00;100856.97;7396386;19;20890;-56
2022/07/19 03:51:25;;;;;;;21.87;12.73;;;;;;;14.79;100.00;100855.28;7388935;19;20438;-58
2022/07/19 03:53:57;;;;;;;26.83;14.13;;;;;;;14.80;100.00;100857.03;7395668;19;20387;-55
2022/07/19 03:56:26;;;;;;;22.53;13.53;;;;;;;14.82;100.00;100865.75;7385781;19;20489;-54
2022/07/19 03:58:56;;;;;;;25.27;14.30;;;;;;;14.80;100.00;100867.41;7396636;19;20460;-57
2022/07/19 04:01:25;;;;;;;23.93;13.20;;;;;;;14.78;100.00;100870.00;7385231;19;20496;-57
2022/07/19 04:03:55;;;;;;;23.53;14.27;;;;;;;14.81;100.00;100869.19;7395079;19;20385;-58
2022/07/19 04:06:25;;;;;;;23.07;13.07;;;;;;;14.83;100.00;100862.31;7381754;19;20405;-57
2022/07/19 04:08:57;;;;;;;34.13;13.77;;;;;;;14.88;100.00;100870.22;7395820;19;20394;-58
2022/07/19 04:11:26;;;;;;;23.80;13.50;;;;;;;14.91;100.00;100868.59;7386911;19;21022;-59
2022/07/19 04:13:56;;;;;;;21.50;12.83;;;;;;;14.94;100.00;100868.69;7395133;19;20912;-58
2022/07/19 04:16:25;;;;;;;23.33;13.23;;;;;;;14.89;100.00;100871.97;7384749;19;20428;-59
2022/07/19 04:18:55;;;;;;;31.23;15.83;;;;;;;14.81;100.00;100877.84;7395471;19;20406;-59
2022/07/19 04:21:25;;;;;;;23.23;14.07;;;;;;;14.86;100.00;100872.78;7386997;19;20770;-58
2022/07/19 04:23:57;;;;;;;24.80;14.03;;;;;;;14.93;100.00;100877.28;7394954;19;20394;-60
2022/07/19 04:26:26;;;;;;;22.80;13.47;;;;;;;14.98;100.00;100882.63;7385201;19;20403;-58
2022/07/19 04:28:56;;;;;;;18.20;11.63;;;;;;;15.07;100.00;100882.84;7394693;19;20763;-58
2022/07/19 04:31:25;;;;;;;21.43;12.13;;;;;;;15.13;100.00;100887.34;7385724;19;20412;-58
2022/07/19 04:33:55;;;;;;;20.73;11.97;;;;;;;15.09;100.00;100875.09;7393518;19;20391;-58
2022/07/19 04:36:24;;;;;;;19.30;10.80;;;;;;;15.14;100.00;100883.88;7385922;19;20417;-58
2022/07/19 04:38:56;;;;;;;18.13;10.43;;;;;;;15.25;100.00;100882.44;7394407;19;20391;-58
2022/07/19 04:41:26;;;;;;;25.07;11.10;;;;;;;15.36;100.00;100889.59;7387931;19;20413;-56
2022/07/19 04:43:56;;;;;;;20.73;10.03;;;;;;;15.44;100.00;100895.84;7393890;19;20401;-57
2022/07/19 04:46:25;;;;;;;12.90;8.40;;;;;;;15.50;100.00;100909.00;7388224;19;20413;-55
2022/07/19 04:48:55;;;;;;;20.13;10.30;;;;;;;15.54;100.00;100917.78;7394292;19;20387;-58
2022/07/19 04:51:24;;;;;;;15.87;9.77;;;;;;;15.62;100.00;100929.22;7387767;19;20406;-59
2022/07/19 04:53:57;;;;;;;14.50;8.83;;;;;;;15.72;100.00;100932.03;7392394;19;20907;-59
2022/07/19 04:56:26;;;;;;;12.57;7.70;;;;;;;15.78;100.00;100948.69;7385810;19;20948;-56
2022/07/19 04:58:56;;;;;;;12.97;7.87;;;;;;;15.91;100.00;100961.97;7394174;19;20371;-55
2022/07/19 05:01:25;;;;;;;12.90;8.67;;;;;;;15.99;100.00;100973.44;7384073;19;20418;-59
2022/07/19 05:03:55;;;;;;;15.07;8.57;;;;;;;16.10;100.00;100991.91;7394612;19;20761;-56
2022/07/19 05:06:25;;;;;;;12.50;8.43;;;;;;;16.14;100.00;101001.56;7379854;19;20416;-57
2022/07/19 05:08:57;;;;;;;14.53;8.03;;;;;;;16.19;100.00;101006.84;7394343;19;20470;-58
2022/07/19 05:11:27;;;;;;;14.50;7.83;;;;;;;16.22;100.00;101008.66;7385446;19;20419;-57
2022/07/19 05:13:57;;;;;;;14.17;8.30;;;;;;;16.27;100.00;101013.13;7391260;19;20386;-56
2022/07/19 05:16:26;;;;;;;14.20;8.20;;;;;;;16.32;100.00;101016.69;7385113;19;20415;-58
2022/07/19 05:18:56;;;;;;;12.10;7.97;;;;;;;16.45;100.00;101023.06;7393512;19;20746;-57
2022/07/19 05:21:26;;;;;;;15.83;8.80;;;;;;;16.55;100.00;101034.56;7384354;19;20412;-57
2022/07/19 05:23:58;;;;;;;16.57;8.50;;;;;;;16.63;100.00;101057.28;7392538;19;20396;-54
2022/07/19 05:26:27;;;;;;;13.80;8.83;;;;;;;16.67;100.00;101064.31;7385737;19;20406;-59
2022/07/19 05:28:57;;;;;;;12.60;8.13;;;;;;;16.72;100.00;101071.38;7393277;19;20990;-57
2022/07/19 05:31:26;;;;;;;13.70;7.70;;;;;;;16.80;100.00;101076.75;7385507;19;20410;-57
2022/07/19 05:33:56;;;;;;;11.53;6.83;;;;;;;16.90;100.00;101082.16;7390486;19;20406;-57
2022/07/19 05:36:25;;;;;;;12.10;7.53;;;;;;;16.97;100.00;101084.91;7385004;19;20416;-57
2022/07/19 05:38:58;;;;;;;10.60;6.90;;;;;;;17.07;100.00;101088.63;7392724;19;20395;-58
2022/07/19 05:41:27;;;;;;;13.10;7.37;;;;;;;17.19;100.00;101101.03;7382628;19;20417;-56
2022/07/19 05:43:57;;;;;;;14.60;8.20;;;;;;;17.27;100.00;101104.66;7391738;19;20400;-58
2022/07/19 05:46:26;;;;;;;22.97;14.80;;;;;;;17.40;100.00;101110.97;7383031;19;20428;-59
2022/07/19 05:48:56;;;;;;;11.13;7.50;;;;;;;17.50;100.00;101121.59;7392452;19;20382;-55
2022/07/19 05:51:25;;;;;;;31.60;17.57;;;;;;;17.59;100.00;101137.41;7385272;19;20418;-58
2022/07/19 05:54:00;;;;;;;24.60;15.73;;;;;;;17.71;100.00;101162.88;7394284;19;20403;-59
2022/07/19 05:56:30;;;;;;;13.53;7.10;;;;;;;17.77;100.00;101183.88;7382473;19;20403;-55
2022/07/19 05:59:01;;;;;;;12.27;7.40;;;;;;;18.00;100.00;101196.44;7392403;19;20397;-59
2022/07/19 06:01:31;;;;;;;13.50;7.60;;;;;;;18.03;100.00;101222.63;7384312;19;20415;-58
2022/07/19 06:04:02;;;;;;;23.53;13.63;;;;;;;18.14;100.00;101241.13;7391763;19;20383;-55
2022/07/19 06:06:33;;;;;;;21.53;11.27;;;;;;;18.26;100.00;101270.91;7382058;19;20782;-58
2022/07/19 06:09:07;;;;;;;19.23;8.80;;;;;;;18.40;100.00;101292.06;7392259;19;20396;-57
2022/07/19 06:11:37;;;;;;;12.83;6.83;;;;;;;18.50;100.00;101322.72;7383515;19;20410;-59
2022/07/19 06:14:08;;;;;;;12.53;7.50;;;;;;;18.63;100.00;101345.59;7392018;19;20388;-57
2022/07/19 06:16:40;;;;;;;12.13;7.20;;;;;;;18.76;100.00;101387.63;7389672;19;20407;-55
2022/07/19 06:19:11;;;;;;;12.57;7.83;;;;;;;18.95;100.00;101399.28;7399467;19;20447;-55
2022/07/19 06:21:41;;;;;;;11.90;7.20;;;;;;;19.02;100.00;101415.94;7383753;19;20486;-57
2022/07/19 06:24:13;;;;;;;11.30;7.00;;;;;;;19.11;100.00;101416.16;7398810;19;20380;-56
2022/07/19 06:26:43;;;;;;;11.77;6.70;;;;;;;19.19;100.00;101400.59;7384256;19;20958;-58
2022/07/19 06:29:12;;;;;;;11.30;7.07;;;;;;;19.29;100.00;101399.88;7399018;19;20483;-57
2022/07/19 06:31:42;;;;;;;12.10;6.30;;;;;;;19.46;100.00;101407.09;7384571;19;20419;-58
2022/07/19 06:34:12;;;;;;;11.40;6.40;;;;;;;19.58;100.00;101435.19;7396105;19;20401;-59
2022/07/19 06:36:42;;;;;;;10.00;6.20;;;;;;;19.66;100.00;101461.47;7386177;19;20423;-56
2022/07/19 06:39:14;;;;;;;11.40;6.47;;;;;;;19.88;100.00;101469.66;7399007;19;20917;-57
2022/07/19 06:41:46;;;;;;;10.77;5.90;;;;;;;20.15;100.00;101490.13;7392486;19;20437;-57
2022/07/19 06:44:16;;;;;;;10.07;5.90;;;;;;;20.40;100.00;101519.28;7397464;19;20471;-57
2022/07/19 06:46:45;;;;;;;13.07;6.43;;;;;;;20.46;100.00;101561.28;7387721;19;20752;-56
2022/07/19 06:49:23;;;;;;;11.37;6.07;;;;;;;20.50;100.00;101583.19;7397753;19;20411;-59
2022/07/19 06:51:55;;;;;;;13.07;5.80;;;;;;;20.70;100.00;101619.25;7382653;19;20490;-56
2022/07/19 06:54:27;;;;;;;10.03;6.27;;;;;;;20.94;100.00;101652.84;7395055;19;20741;-58
2022/07/19 06:56:57;;;;;;;12.87;6.87;;;;;;;21.01;100.00;101656.41;7382286;19;21236;-57
2022/07/19 06:59:26;;;;;;;9.97;6.37;;;;;;;21.23;100.00;101675.91;7402235;19;20917;-58
2022/07/19 07:01:56;;;;;;;10.43;6.10;;;;;;;21.51;100.00;101715.63;7376818;19;20960;-58
2022/07/19 07:04:26;;;;;;;9.17;6.00;;;;;;;21.57;100.00;101728.81;7396749;19;20390;-56
2022/07/19 07:07:09;;;;;;;9.40;5.70;;;;;;;21.66;100.00;101738.53;7390168;19;20807;-58
2022/07/19 07:09:41;;;;;;;11.10;6.37;;;;;;;21.82;100.00;101742.25;7397695;19;20406;-58
2022/07/19 07:12:11;;;;;;;13.20;6.83;;;;;;;21.86;100.00;101756.28;7382629;19;20407;-59
2022/07/19 07:14:41;;;;;;;10.87;6.77;;;;;;;21.91;100.00;101765.09;7395121;19;20392;-59
2022/07/19 07:17:10;;;;;;;9.43;5.80;;;;;;;22.08;100.00;101773.16;7382658;19;20414;-59
2022/07/19 07:19:40;;;;;;;12.60;6.23;;;;;;;22.14;100.00;101795.97;7397515;19;20722;-59
2022/07/19 07:22:09;;;;;;;8.80;5.60;;;;;;;22.38;100.00;101797.06;7388860;19;20423;-58
2022/07/19 07:24:41;;;;;;;11.67;6.07;;;;;;;22.51;100.00;101809.47;7396506;19;20394;-58
2022/07/19 07:27:11;;;;;;;8.37;5.23;;;;;;;22.65;100.00;101861.31;7388221;19;20478;-58
2022/07/19 07:29:41;;;;;;;12.63;6.83;;;;;;;22.63;100.00;101857.78;7397170;19;20502;-58
2022/07/19 07:32:10;;;;;;;8.40;5.47;;;;;;;22.73;100.00;101862.28;7387090;19;20758;-56
2022/07/19 07:34:40;;;;;;;9.13;5.63;;;;;;;22.93;100.00;101859.78;7394877;19;20384;-58
2022/07/19 07:37:09;;;;;;;10.20;5.70;;;;;;;23.06;100.00;101859.88;7388003;19;20419;-59
2022/07/19 07:39:41;;;;;;;11.67;6.17;;;;;;;23.22;100.00;101860.84;7396064;19;20399;-56
2022/07/19 07:42:11;;;;;;;12.70;6.30;;;;;;;23.39;100.00;101858.38;7388578;19;20414;-58
2022/07/19 07:44:41;;;;;;;9.53;5.30;;;;;;;23.36;100.00;101853.09;7395910;19;20570;-57
2022/07/19 07:47:11;;;;;;;10.63;5.87;;;;;;;23.42;100.00;101854.84;7390248;19;20494;-58
2022/07/19 07:49:41;;;;;;;11.60;5.30;;;;;;;23.48;100.00;101841.72;7395780;19;20451;-59
2022/07/19 07:52:10;;;;;;;9.60;6.27;;;;;;;23.52;100.00;101838.25;7389741;19;21272;-57
2022/07/19 07:54:42;;;;;;;12.73;5.43;;;;;;;23.64;100.00;101818.09;7394069;19;20384;-59
2022/07/19 07:57:32;;;;;;;11.20;5.30;;;;;;;23.69;100.00;101824.28;7387494;19;20942;-57
2022/07/19 08:00:01;;;;;;;10.23;5.60;;;;;;;23.73;100.00;101818.13;7395779;19;20742;-56
2022/07/19 08:02:33;;;;;;;9.40;5.00;;;;;;;23.78;100.00;101813.75;7386702;19;20490;-56
2022/07/19 08:05:02;;;;;;;10.30;5.40;;;;;;;23.88;100.00;101814.66;7395108;19;20442;-59
2022/07/19 08:07:32;;;;;;;12.20;5.10;;;;;;;23.98;100.00;101783.94;7386138;19;20430;-58
2022/07/19 08:10:05;;;;;;;10.10;4.83;;;;;;;24.25;100.00;101764.69;7395690;19;20388;-54
2022/07/19 08:12:35;;;;;;;12.17;5.90;;;;;;;24.31;100.00;101768.22;7382757;19;20934;-58
2022/07/19 08:15:05;;;;;;;9.53;5.70;;;;;;;24.26;100.00;101778.75;7393371;19;20411;-58
2022/07/19 08:17:35;;;;;;;7.90;5.10;;;;;;;24.33;100.00;101748.88;7388263;19;20490;-59
2022/07/19 08:20:04;;;;;;;8.73;5.13;;;;;;;24.45;100.00;101747.97;7395094;19;20387;-57
2022/07/19 08:22:34;;;;;;;9.47;5.40;;;;;;;24.62;100.00;101718.09;7389335;19;20415;-56
2022/07/19 08:25:07;;;;;;;12.53;5.90;;;;;;;24.80;100.00;101685.50;7394232;19;20399;-56
2022/07/19 08:27:37;;;;;;;15.50;5.20;;;;;;;24.88;100.00;101699.59;7386984;19;20427;-59
2022/07/19 08:30:07;;;;;;;10.00;5.60;;;;;;;24.85;100.00;101704.84;7394508;19;20394;-58
2022/07/19 08:32:38;;;;;;;9.60;5.43;;;;;;;24.87;100.00;101703.09;7385692;19;20403;-59
2022/07/19 08:35:08;;;;;;;9.20;5.67;;;;;;;24.97;100.00;101681.97;7392891;19;20426;-59
2022/07/19 08:37:38;;;;;;;11.47;5.70;;;;;;;25.06;100.00;101697.75;7384077;19;20761;-59
2022/07/19 08:40:11;;;;;;;9.27;5.03;;;;;;;25.28;100.00;101665.97;7394394;19;20388;-57
2022/07/19 08:42:42;;;;;;;8.90;4.87;;;;;;;25.36;100.00;101674.72;7386223;19;20502;-59
2022/07/19 08:45:13;;;;;;;9.27;5.40;;;;;;;25.43;100.00;101665.00;7393825;19;20937;-58
2022/07/19 08:47:43;;;;;;;7.80;5.23;;;;;;;25.48;100.00;101669.38;7384371;19;20408;-57
2022/07/19 08:50:13;;;;;;;8.37;4.93;;;;;;;25.54;100.00;101655.28;7394299;19;20396;-57
2022/07/19 08:52:43;;;;;;;10.70;5.07;;;;;;;25.66;100.00;101656.06;7388155;19;20447;-58
2022/07/19 08:55:16;;;;;;;13.80;5.77;;;;;;;25.75;100.00;101656.03;7392763;19;20990;-59
2022/07/19 08:57:57;;;;;;;10.20;5.80;;;;;;;25.79;100.00;101659.50;7387816;19;20417;-56
2022/07/19 09:00:28;;;;;;;8.63;5.63;;;;;;;25.80;100.00;101645.41;7393327;19;20459;-59
2022/07/19 09:03:00;;;;;;;8.10;4.90;;;;;;;25.79;100.00;101647.16;7384310;19;20411;-59
2022/07/19 09:05:30;;;;;;;9.70;5.37;;;;;;;25.96;100.00;101636.47;7392532;19;20415;-58
2022/07/19 09:08:11;;;;;;;8.40;4.90;;;;;;;25.99;100.00;101644.34;7386162;19;20410;-59
2022/07/19 09:11:13;;;;;;;9.13;5.20;;;;;;;26.05;100.00;101642.56;7393609;19;20387;-59
2022/07/19 09:13:36;;;;;;;9.47;4.93;;;;;;;26.07;99.39;101624.91;7389178;19;20411;-59
2022/07/19 09:16:06;;;;;;;8.53;5.40;;;;;;;25.94;98.08;101613.59;7382591;19;20423;-58
2022/07/19 09:18:37;;;;;;;8.93;4.87;;;;;;;25.94;99.53;101624.16;7393153;19;20379;-56
2022/07/19 09:21:08;;;;;;;8.47;4.30;;;;;;;26.19;86.14;101592.19;7385061;19;20840;-59
2022/07/19 09:23:41;;;;;;;9.40;4.40;;;;;;;26.05;86.79;101589.69;7393045;19;20383;-57
2022/07/19 09:26:13;;;;;;;8.90;4.87;;;;;;;26.41;85.80;101587.56;7376104;19;20772;-60
2022/07/19 09:28:42;;;;;;;10.97;4.93;;;;;;;26.63;82.93;101582.00;7393438;19;20376;-57
2022/07/19 09:31:12;;;;;;;7.63;4.80;;;;;;;26.51;81.52;101578.63;7385389;19;20383;-58
2022/07/19 09:33:46;;;;;;;7.63;4.43;;;;;;;26.56;81.97;101576.78;7393152;19;20410;-58
2022/07/19 09:36:16;;;;;;;12.30;4.83;;;;;;;26.63;82.74;101579.38;7376656;19;20830;-59
2022/07/19 09:38:46;;;;;;;10.27;5.10;;;;;;;26.55;78.62;101568.88;7392680;19;20733;-59
2022/07/19 09:41:20;;;;;;;10.10;4.97;;;;;;;26.69;81.92;101577.53;7385566;19;21850;-60
2022/07/19 09:43:54;;;;;;;12.73;4.40;;;;;;;26.64;79.45;101565.22;7392537;19;20758;-59
2022/07/19 09:46:33;;;;;;;8.10;3.90;;;;;;;26.60;72.92;101548.53;7377033;19;20426;-57
2022/07/19 09:49:07;;;;;;;7.47;4.07;;;;;;;26.85;73.96;101557.94;7402643;19;20416;-57
2022/07/19 09:51:38;;;;;;;10.07;4.50;;;;;;;27.23;73.69;101561.81;7389478;19;20418;-59
2022/07/19 09:54:09;;;;;;;11.67;4.50;;;;;;;27.05;72.19;101557.66;7399757;19;20391;-59
2022/07/19 09:56:43;;;;;;;8.47;4.50;;;;;;;27.14;76.45;101564.59;7379472;19;20414;-59
2022/07/19 09:59:14;;;;;;;6.67;3.80;;;;;;;27.16;70.20;101549.56;7399600;19;20410;-58
2022/07/19 10:01:43;;;;;;;8.17;4.53;;;;;;;27.24;74.80;101555.63;7379158;19;21020;-59
2022/07/19 10:04:14;;;;;;;8.40;4.90;;;;;;;27.41;79.75;101575.63;7399231;19;20376;-59
2022/07/19 10:06:45;;;;;;;11.20;5.40;;;;;;;27.47;75.41;101562.28;7391821;19;20403;-59
2022/07/19 10:09:17;;;;;;;9.80;5.73;;;;;;;27.40;81.16;101574.78;7398114;19;20390;-58
2022/07/19 10:11:55;;;;;;;6.67;4.03;;;;;;;27.34;69.82;101538.66;7391617;19;20394;-59
2022/07/19 10:14:24;;;;;;;11.90;6.33;;;;;;;27.53;71.54;101540.13;7396846;19;20934;-57
2022/07/19 10:17:03;;;;;;;15.33;5.37;;;;;;;27.84;69.92;101529.03;7387197;19;20417;-59
2022/07/19 10:19:37;;;;;;;8.43;4.27;;;;;;;27.93;70.22;101535.94;7399530;19;20382;-59
2022/07/19 10:22:08;;;;;;;20.03;8.23;;;;;;;28.07;68.10;101523.28;7394230;19;20451;-59
2022/07/19 10:24:48;;;;;;;13.23;6.60;;;;;;;28.17;65.62;101524.84;7398654;19;20382;-59
2022/07/19 10:27:36;;;;;;;7.57;4.10;;;;;;;28.01;55.72;101504.84;7391783;19;20419;-59
2022/07/19 10:30:20;;;;;;;7.77;3.90;;;;;;;28.18;59.26;101509.78;7399569;19;20469;-57
2022/07/19 10:32:51;;;;;;;8.87;4.00;;;;;;;28.35;56.82;101498.84;7392696;19;20985;-58
2022/07/19 10:35:22;;;;;;;6.60;3.70;;;;;;;28.59;57.35;101493.91;7396856;19;20419;-61
2022/07/19 10:37:53;;;;;;;7.53;3.50;;;;;;;28.70;51.49;101483.06;7391678;19;20435;-60
2022/07/19 10:40:43;;;;;;;7.07;3.10;;;;;;;28.71;49.18;101484.81;7402680;19;20406;-60
2022/07/19 10:43:16;;;;;;;6.43;3.13;;;;;;;28.64;46.54;101476.13;7390002;19;20427;-60
2022/07/19 10:46:06;;;;;;;5.93;3.40;;;;;;;28.75;48.78;101488.28;7396731;19;20784;-60
2022/07/19 10:48:39;;;;;;;7.80;3.70;;;;;;;28.89;50.38;101485.31;7401768;19;20952;-59
2022/07/19 10:51:09;;;;;;;5.63;3.37;;;;;;;29.30;49.26;101480.78;7390723;19;20737;-59
2022/07/19 10:54:05;;;;;;;7.27;3.63;;;;;;;29.32;46.46;101475.41;7400314;19;20450;-58
2022/07/19 10:56:48;;;;;;;6.90;3.57;;;;;;;29.57;45.89;101458.84;7388640;19;20942;-57
2022/07/19 10:59:43;;;;;;;6.50;3.10;;;;;;;29.61;42.29;101461.38;7396695;19;20427;-59
2022/07/19 11:02:25;;;;;;;5.43;2.73;;;;;;;29.36;43.99;101463.78;7391841;19;20421;-59
2022/07/19 11:05:23;;;;;;;5.27;3.20;;;;;;;29.23;45.41;101463.25;7396627;19;20422;-62
2022/07/19 11:07:54;;;;;;;12.20;3.30;;;;;;;29.62;46.33;101470.22;7389369;19;20431;-61
2022/07/19 11:10:25;;;;;;;6.67;3.20;;;;;;;29.67;45.61;101468.31;7397648;19;20394;-60
2022/07/19 11:12:55;;;;;;;6.20;3.20;;;;;;;30.01;45.41;101472.69;7385202;19;20430;-62
2022/07/19 11:15:28;;;;;;;7.27;2.97;;;;;;;30.13;43.92;101451.97;7396154;19;20495;-61
2022/07/19 11:18:06;;;;;;;6.17;3.07;;;;;;;30.31;44.71;101454.06;7390287;19;20418;-57
2022/07/19 11:20:37;;;;;;;9.73;3.17;;;;;;;30.48;44.33;101450.03;7397480;19;20906;-57
2022/07/19 11:23:07;;;;;;;7.00;3.00;;;;;;;30.59;44.42;101450.56;7389138;19;20962;-60
2022/07/19 11:25:39;;;;;;;7.13;3.47;;;;;;;30.66;42.31;101447.72;7396031;19;20474;-60
2022/07/19 11:28:08;;;;;;;8.53;4.13;;;;;;;30.81;47.45;101454.38;7387585;19;20442;-59
2022/07/19 11:30:40;;;;;;;6.63;3.33;;;;;;;30.71;41.35;101440.47;7396404;19;20746;-59